sensor_id;sensor_type;location;lat;lon;timestamp;temperature;humidity
3418;DHT22;1722;51.316;12.370;2022-12-07T00:01:35;3.70;98.50
3418;DHT22;1722;51.316;12.370;2022-12-07T00:04:05;3.60;98.70
3418;DHT22;1722;51.316;12.370;2022-12-07T00:06:35;3.60;98.80
3418;DHT22;1722;51.316;12.370;2022-12-07T00:09:03;3.60;98.70
3418;DHT22;1722;51.316;12.370;2022-12-07T00:11:30;3.70;98.60
3418;DHT22;1722;51.316;12.370;2022-12-07T00:14:00;3.60;98.70
3418;DHT22;1722;51.316;12.370;2022-12-07T00:16:30;3.70;98.60
3418;DHT22;1722;51.316;12.370;2022-12-07T00:18:59;3.70;98.40
3418;DHT22;1722;51.316;12.370;2022-12-07T00:21:28;3.70;98.20
3418;DHT22;1722;51.316;12.370;2022-12-07T00:23:56;3.50;98.50
3418;DHT22;1722;51.316;12.370;2022-12-07T00:26:26;3.30;98.80
3418;DHT22;1722;51.316;12.370;2022-12-07T00:28:55;3.40;98.80
3418;DHT22;1722;51.316;12.370;2022-12-07T00:31:25;3.40;98.60
3418;DHT22;1722;51.316;12.370;2022-12-07T00:33:53;3.40;98.70
3418;DHT22;1722;51.316;12.370;2022-12-07T00:36:23;3.50;98.40
3418;DHT22;1722;51.316;12.370;2022-12-07T00:38:51;3.40;98.30
3418;DHT22;1722;51.316;12.370;2022-12-07T00:41:20;3.40;98.20
3418;DHT22;1722;51.316;12.370;2022-12-07T00:43:49;3.40;98.10
3418;DHT22;1722;51.316;12.370;2022-12-07T00:46:18;3.30;98.00
3418;DHT22;1722;51.316;12.370;2022-12-07T00:48:47;3.20;98.30
3418;DHT22;1722;51.316;12.370;2022-12-07T00:51:16;3.20;98.20
3418;DHT22;1722;51.316;12.370;2022-12-07T00:53:46;3.20;98.10
3418;DHT22;1722;51.316;12.370;2022-12-07T00:56:15;3.10;98.10
3418;DHT22;1722;51.316;12.370;2022-12-07T00:58:43;3.00;98.20
3418;DHT22;1722;51.316;12.370;2022-12-07T01:01:11;3.00;98.20
3418;DHT22;1722;51.316;12.370;2022-12-07T01:03:38;3.10;98.10
3418;DHT22;1722;51.316;12.370;2022-12-07T01:06:06;3.20;97.90
3418;DHT22;1722;51.316;12.370;2022-12-07T01:08:34;3.20;97.70
3418;DHT22;1722;51.316;12.370;2022-12-07T01:11:05;3.20;97.90
3418;DHT22;1722;51.316;12.370;2022-12-07T01:13:33;3.10;97.60
3418;DHT22;1722;51.316;12.370;2022-12-07T01:16:04;3.00;97.60
3418;DHT22;1722;51.316;12.370;2022-12-07T01:18:33;3.00;97.50
3418;DHT22;1722;51.316;12.370;2022-12-07T01:21:23;2.90;97.70
3418;DHT22;1722;51.316;12.370;2022-12-07T01:24:27;2.90;97.70
3418;DHT22;1722;51.316;12.370;2022-12-07T01:26:58;3.00;97.70
3418;DHT22;1722;51.316;12.370;2022-12-07T01:29:35;2.90;97.40
3418;DHT22;1722;51.316;12.370;2022-12-07T01:32:05;3.00;97.50
3418;DHT22;1722;51.316;12.370;2022-12-07T01:35:20;3.00;97.20
3418;DHT22;1722;51.316;12.370;2022-12-07T01:38:02;2.90;97.00
3418;DHT22;1722;51.316;12.370;2022-12-07T01:40:41;2.90;97.20
3418;DHT22;1722;51.316;12.370;2022-12-07T01:43:18;3.00;97.30
3418;DHT22;1722;51.316;12.370;2022-12-07T01:46:06;3.10;97.40
3418;DHT22;1722;51.316;12.370;2022-12-07T01:48:56;3.10;97.00
3418;DHT22;1722;51.316;12.370;2022-12-07T01:51:52;3.20;97.00
3418;DHT22;1722;51.316;12.370;2022-12-07T01:54:33;3.20;96.40
3418;DHT22;1722;51.316;12.370;2022-12-07T01:57:39;3.20;96.70
3418;DHT22;1722;51.316;12.370;2022-12-07T02:00:20;3.30;96.60
3418;DHT22;1722;51.316;12.370;2022-12-07T02:03:24;3.20;96.40
3418;DHT22;1722;51.316;12.370;2022-12-07T02:06:48;3.20;96.40
3418;DHT22;1722;51.316;12.370;2022-12-07T02:13:08;3.20;96.00
3418;DHT22;1722;51.316;12.370;2022-12-07T02:16:06;3.20;96.00
3418;DHT22;1722;51.316;12.370;2022-12-07T02:20:23;3.10;95.90
3418;DHT22;1722;51.316;12.370;2022-12-07T02:37:09;3.30;96.10
3418;DHT22;1722;51.316;12.370;2022-12-07T02:47:55;3.20;95.20
3418;DHT22;1722;51.316;12.370;2022-12-07T02:50:44;3.00;95.30
3418;DHT22;1722;51.316;12.370;2022-12-07T02:53:54;3.00;95.50
3418;DHT22;1722;51.316;12.370;2022-12-07T03:06:50;3.10;95.10
3418;DHT22;1722;51.316;12.370;2022-12-07T03:10:12;3.00;95.50
3418;DHT22;1722;51.316;12.370;2022-12-07T03:13:09;3.10;95.60
3418;DHT22;1722;51.316;12.370;2022-12-07T03:16:12;3.00;95.50
3418;DHT22;1722;51.316;12.370;2022-12-07T03:19:25;3.00;95.30
3418;DHT22;1722;51.316;12.370;2022-12-07T03:22:22;3.00;95.50
3418;DHT22;1722;51.316;12.370;2022-12-07T03:25:26;3.00;95.30
3418;DHT22;1722;51.316;12.370;2022-12-07T03:28:33;3.00;95.50
3418;DHT22;1722;51.316;12.370;2022-12-07T03:38:15;3.10;95.60
3418;DHT22;1722;51.316;12.370;2022-12-07T03:41:33;3.10;95.50
3418;DHT22;1722;51.316;12.370;2022-12-07T03:44:49;3.10;95.60
3418;DHT22;1722;51.316;12.370;2022-12-07T03:47:29;3.10;95.20
3418;DHT22;1722;51.316;12.370;2022-12-07T03:57:20;2.90;95.60
3418;DHT22;1722;51.316;12.370;2022-12-07T04:00:13;2.90;95.80
3418;DHT22;1722;51.316;12.370;2022-12-07T04:02:48;2.80;95.80
3418;DHT22;1722;51.316;12.370;2022-12-07T04:05:47;2.80;96.10
3418;DHT22;1722;51.316;12.370;2022-12-07T04:08:36;2.80;95.80
3418;DHT22;1722;51.316;12.370;2022-12-07T04:11:06;2.70;96.00
3418;DHT22;1722;51.316;12.370;2022-12-07T04:14:29;2.80;96.00
3418;DHT22;1722;51.316;12.370;2022-12-07T04:17:11;2.80;96.00
3418;DHT22;1722;51.316;12.370;2022-12-07T04:19:38;2.90;96.00
3418;DHT22;1722;51.316;12.370;2022-12-07T04:22:30;2.90;95.90
3418;DHT22;1722;51.316;12.370;2022-12-07T04:25:26;2.90;95.90
3418;DHT22;1722;51.316;12.370;2022-12-07T04:27:54;2.90;95.90
3418;DHT22;1722;51.316;12.370;2022-12-07T04:33:42;2.80;96.30
3418;DHT22;1722;51.316;12.370;2022-12-07T04:36:31;2.90;96.20
3418;DHT22;1722;51.316;12.370;2022-12-07T04:42:39;3.00;96.10
3418;DHT22;1722;51.316;12.370;2022-12-07T04:45:23;2.90;96.30
3418;DHT22;1722;51.316;12.370;2022-12-07T04:48:03;2.70;97.10
3418;DHT22;1722;51.316;12.370;2022-12-07T04:50:50;2.40;97.70
3418;DHT22;1722;51.316;12.370;2022-12-07T04:53:25;2.40;97.80
3418;DHT22;1722;51.316;12.370;2022-12-07T04:55:55;2.50;97.80
3418;DHT22;1722;51.316;12.370;2022-12-07T04:58:23;2.50;97.80
3418;DHT22;1722;51.316;12.370;2022-12-07T05:03:52;2.60;97.90
3418;DHT22;1722;51.316;12.370;2022-12-07T05:07:10;2.60;98.00
3418;DHT22;1722;51.316;12.370;2022-12-07T05:09:56;2.80;97.80
3418;DHT22;1722;51.316;12.370;2022-12-07T05:12:54;2.70;98.00
3418;DHT22;1722;51.316;12.370;2022-12-07T05:15:27;2.50;98.50
3418;DHT22;1722;51.316;12.370;2022-12-07T05:17:56;2.50;98.60
3418;DHT22;1722;51.316;12.370;2022-12-07T05:20:51;2.40;98.90
3418;DHT22;1722;51.316;12.370;2022-12-07T05:23:19;2.50;98.90
3418;DHT22;1722;51.316;12.370;2022-12-07T05:25:55;2.40;99.30
3418;DHT22;1722;51.316;12.370;2022-12-07T05:28:50;2.50;99.30
3418;DHT22;1722;51.316;12.370;2022-12-07T05:31:24;2.50;99.30
3418;DHT22;1722;51.316;12.370;2022-12-07T05:34:22;2.50;99.30
3418;DHT22;1722;51.316;12.370;2022-12-07T05:36:57;2.50;99.50
3418;DHT22;1722;51.316;12.370;2022-12-07T05:39:36;2.40;99.70
3418;DHT22;1722;51.316;12.370;2022-12-07T05:45:54;2.30;99.90
3418;DHT22;1722;51.316;12.370;2022-12-07T05:51:42;2.50;99.90
3418;DHT22;1722;51.316;12.370;2022-12-07T05:57:42;2.40;99.90
3418;DHT22;1722;51.316;12.370;2022-12-07T06:00:39;2.40;99.90
3418;DHT22;1722;51.316;12.370;2022-12-07T06:03:35;2.50;99.90
3418;DHT22;1722;51.316;12.370;2022-12-07T06:06:23;2.30;99.90
3418;DHT22;1722;51.316;12.370;2022-12-07T06:09:21;2.40;99.90
3418;DHT22;1722;51.316;12.370;2022-12-07T06:11:57;2.50;99.90
3418;DHT22;1722;51.316;12.370;2022-12-07T06:14:54;2.50;99.90
3418;DHT22;1722;51.316;12.370;2022-12-07T06:17:22;2.50;99.90
3418;DHT22;1722;51.316;12.370;2022-12-07T06:19:52;2.50;99.90
3418;DHT22;1722;51.316;12.370;2022-12-07T06:22:35;2.50;99.90
3418;DHT22;1722;51.316;12.370;2022-12-07T06:25:29;2.50;99.90
3418;DHT22;1722;51.316;12.370;2022-12-07T06:28:35;2.50;99.90
3418;DHT22;1722;51.316;12.370;2022-12-07T06:31:20;2.50;99.90
3418;DHT22;1722;51.316;12.370;2022-12-07T06:34:19;2.50;99.90
3418;DHT22;1722;51.316;12.370;2022-12-07T06:37:27;2.50;99.90
3418;DHT22;1722;51.316;12.370;2022-12-07T06:39:55;2.60;99.90
3418;DHT22;1722;51.316;12.370;2022-12-07T06:42:54;2.60;99.90
3418;DHT22;1722;51.316;12.370;2022-12-07T06:45:21;2.50;99.90
3418;DHT22;1722;51.316;12.370;2022-12-07T06:47:54;2.50;99.90
3418;DHT22;1722;51.316;12.370;2022-12-07T06:51:06;2.50;99.90
3418;DHT22;1722;51.316;12.370;2022-12-07T06:57:17;2.50;99.90
3418;DHT22;1722;51.316;12.370;2022-12-07T07:03:12;2.60;99.90
3418;DHT22;1722;51.316;12.370;2022-12-07T07:05:48;2.70;99.90
3418;DHT22;1722;51.316;12.370;2022-12-07T07:08:18;2.60;99.90
3418;DHT22;1722;51.316;12.370;2022-12-07T07:11:07;2.60;99.90
3418;DHT22;1722;51.316;12.370;2022-12-07T07:16:27;2.60;99.90
3418;DHT22;1722;51.316;12.370;2022-12-07T07:18:55;2.60;99.90
3418;DHT22;1722;51.316;12.370;2022-12-07T07:21:23;2.70;99.90
3418;DHT22;1722;51.316;12.370;2022-12-07T07:23:50;2.60;99.90
3418;DHT22;1722;51.316;12.370;2022-12-07T07:26:18;2.60;99.90
3418;DHT22;1722;51.316;12.370;2022-12-07T07:28:45;2.70;99.90
3418;DHT22;1722;51.316;12.370;2022-12-07T07:31:13;2.70;99.90
3418;DHT22;1722;51.316;12.370;2022-12-07T07:33:42;2.70;99.90
3418;DHT22;1722;51.316;12.370;2022-12-07T07:36:09;2.70;99.90
3418;DHT22;1722;51.316;12.370;2022-12-07T07:38:37;2.70;99.90
3418;DHT22;1722;51.316;12.370;2022-12-07T07:41:05;2.70;99.90
3418;DHT22;1722;51.316;12.370;2022-12-07T07:43:32;2.70;99.90
3418;DHT22;1722;51.316;12.370;2022-12-07T07:46:00;2.60;99.90
3418;DHT22;1722;51.316;12.370;2022-12-07T07:48:27;2.60;99.90
3418;DHT22;1722;51.316;12.370;2022-12-07T07:50:56;2.60;99.90
3418;DHT22;1722;51.316;12.370;2022-12-07T07:53:24;2.60;99.90
3418;DHT22;1722;51.316;12.370;2022-12-07T07:55:52;2.60;99.90
3418;DHT22;1722;51.316;12.370;2022-12-07T07:58:20;2.70;99.90
3418;DHT22;1722;51.316;12.370;2022-12-07T08:00:48;2.80;99.90
3418;DHT22;1722;51.316;12.370;2022-12-07T08:03:15;2.80;99.90
3418;DHT22;1722;51.316;12.370;2022-12-07T08:05:43;2.80;99.90
3418;DHT22;1722;51.316;12.370;2022-12-07T08:08:12;2.80;99.90
3418;DHT22;1722;51.316;12.370;2022-12-07T08:10:40;2.80;99.90
3418;DHT22;1722;51.316;12.370;2022-12-07T08:13:07;2.90;99.90
3418;DHT22;1722;51.316;12.370;2022-12-07T08:15:39;2.90;99.90
3418;DHT22;1722;51.316;12.370;2022-12-07T08:18:07;2.90;99.90
3418;DHT22;1722;51.316;12.370;2022-12-07T08:20:36;2.90;99.90
3418;DHT22;1722;51.316;12.370;2022-12-07T08:23:04;2.90;99.90
3418;DHT22;1722;51.316;12.370;2022-12-07T08:25:34;2.90;99.90
3418;DHT22;1722;51.316;12.370;2022-12-07T08:28:02;2.90;99.90
3418;DHT22;1722;51.316;12.370;2022-12-07T08:30:30;2.90;99.90
3418;DHT22;1722;51.316;12.370;2022-12-07T08:32:57;3.00;99.90
3418;DHT22;1722;51.316;12.370;2022-12-07T08:35:25;3.00;99.90
3418;DHT22;1722;51.316;12.370;2022-12-07T08:37:53;3.10;99.70
3418;DHT22;1722;51.316;12.370;2022-12-07T08:40:20;3.00;99.80
3418;DHT22;1722;51.316;12.370;2022-12-07T08:42:52;3.10;99.80
3418;DHT22;1722;51.316;12.370;2022-12-07T08:45:21;3.10;99.70
3418;DHT22;1722;51.316;12.370;2022-12-07T08:47:52;3.10;99.80
3418;DHT22;1722;51.316;12.370;2022-12-07T08:50:22;3.20;99.80
3418;DHT22;1722;51.316;12.370;2022-12-07T08:52:51;3.30;99.70
3418;DHT22;1722;51.316;12.370;2022-12-07T08:55:20;3.40;99.50
3418;DHT22;1722;51.316;12.370;2022-12-07T08:57:48;3.50;99.50
3418;DHT22;1722;51.316;12.370;2022-12-07T09:00:18;3.50;99.50
3418;DHT22;1722;51.316;12.370;2022-12-07T09:02:46;3.50;99.30
3418;DHT22;1722;51.316;12.370;2022-12-07T09:05:14;3.50;99.30
3418;DHT22;1722;51.316;12.370;2022-12-07T09:07:43;3.50;99.20
3418;DHT22;1722;51.316;12.370;2022-12-07T09:10:11;3.60;99.30
3418;DHT22;1722;51.316;12.370;2022-12-07T09:12:39;3.60;99.30
3418;DHT22;1722;51.316;12.370;2022-12-07T09:15:07;3.60;99.30
3418;DHT22;1722;51.316;12.370;2022-12-07T09:17:37;3.60;99.30
3418;DHT22;1722;51.316;12.370;2022-12-07T09:20:06;3.60;99.30
3418;DHT22;1722;51.316;12.370;2022-12-07T09:22:34;3.60;99.20
3418;DHT22;1722;51.316;12.370;2022-12-07T09:25:04;3.60;99.30
3418;DHT22;1722;51.316;12.370;2022-12-07T09:27:32;3.70;99.30
3418;DHT22;1722;51.316;12.370;2022-12-07T09:30:00;3.70;99.30
3418;DHT22;1722;51.316;12.370;2022-12-07T09:32:27;3.80;99.00
3418;DHT22;1722;51.316;12.370;2022-12-07T09:34:56;3.80;99.00
3418;DHT22;1722;51.316;12.370;2022-12-07T09:37:24;3.70;99.10
3418;DHT22;1722;51.316;12.370;2022-12-07T09:39:51;3.70;99.20
3418;DHT22;1722;51.316;12.370;2022-12-07T09:42:26;3.70;99.30
3418;DHT22;1722;51.316;12.370;2022-12-07T09:44:55;3.70;99.40
3418;DHT22;1722;51.316;12.370;2022-12-07T09:47:24;3.70;99.50
3418;DHT22;1722;51.316;12.370;2022-12-07T09:49:53;3.80;99.60
3418;DHT22;1722;51.316;12.370;2022-12-07T09:52:27;3.80;99.60
3418;DHT22;1722;51.316;12.370;2022-12-07T09:54:55;3.90;99.40
3418;DHT22;1722;51.316;12.370;2022-12-07T09:57:28;3.90;99.40
3418;DHT22;1722;51.316;12.370;2022-12-07T10:00:00;3.90;99.40
3418;DHT22;1722;51.316;12.370;2022-12-07T10:02:35;3.90;99.60
3418;DHT22;1722;51.316;12.370;2022-12-07T10:05:06;4.00;99.30
3418;DHT22;1722;51.316;12.370;2022-12-07T10:07:35;4.10;99.30
3418;DHT22;1722;51.316;12.370;2022-12-07T10:10:04;4.10;99.30
3418;DHT22;1722;51.316;12.370;2022-12-07T10:12:55;4.10;99.20
3418;DHT22;1722;51.316;12.370;2022-12-07T10:15:23;4.20;99.00
3418;DHT22;1722;51.316;12.370;2022-12-07T10:17:51;4.20;99.20
3418;DHT22;1722;51.316;12.370;2022-12-07T10:20:22;4.20;99.10
3418;DHT22;1722;51.316;12.370;2022-12-07T10:23:13;4.20;98.90
3418;DHT22;1722;51.316;12.370;2022-12-07T10:25:41;4.30;98.70
3418;DHT22;1722;51.316;12.370;2022-12-07T10:28:15;4.30;98.60
3418;DHT22;1722;51.316;12.370;2022-12-07T10:30:55;4.30;98.80
3418;DHT22;1722;51.316;12.370;2022-12-07T10:33:34;4.30;98.70
3418;DHT22;1722;51.316;12.370;2022-12-07T10:36:16;4.30;98.60
3418;DHT22;1722;51.316;12.370;2022-12-07T10:38:48;4.30;98.70
3418;DHT22;1722;51.316;12.370;2022-12-07T10:41:16;4.30;98.60
3418;DHT22;1722;51.316;12.370;2022-12-07T10:43:50;4.20;98.80
3418;DHT22;1722;51.316;12.370;2022-12-07T10:49:42;4.30;98.90
3418;DHT22;1722;51.316;12.370;2022-12-07T10:52:29;4.30;98.90
3418;DHT22;1722;51.316;12.370;2022-12-07T10:55:20;4.30;98.80
3418;DHT22;1722;51.316;12.370;2022-12-07T10:58:05;4.20;99.10
3418;DHT22;1722;51.316;12.370;2022-12-07T11:00:39;4.30;99.20
3418;DHT22;1722;51.316;12.370;2022-12-07T11:03:35;4.40;99.10
3418;DHT22;1722;51.316;12.370;2022-12-07T11:06:14;4.40;98.50
3418;DHT22;1722;51.316;12.370;2022-12-07T11:08:56;4.30;98.70
3418;DHT22;1722;51.316;12.370;2022-12-07T11:11:32;4.40;98.70
3418;DHT22;1722;51.316;12.370;2022-12-07T11:14:05;4.40;98.90
3418;DHT22;1722;51.316;12.370;2022-12-07T11:16:49;4.50;98.90
3418;DHT22;1722;51.316;12.370;2022-12-07T11:19:46;4.50;99.00
3418;DHT22;1722;51.316;12.370;2022-12-07T11:22:20;4.60;98.80
3418;DHT22;1722;51.316;12.370;2022-12-07T11:24:56;4.50;99.00
3418;DHT22;1722;51.316;12.370;2022-12-07T11:27:32;4.50;98.80
3418;DHT22;1722;51.316;12.370;2022-12-07T11:30:19;4.40;98.90
3418;DHT22;1722;51.316;12.370;2022-12-07T11:32:59;4.40;98.80
3418;DHT22;1722;51.316;12.370;2022-12-07T11:35:38;4.40;99.00
3418;DHT22;1722;51.316;12.370;2022-12-07T11:38:13;4.40;98.80
3418;DHT22;1722;51.316;12.370;2022-12-07T11:40:44;4.40;98.60
3418;DHT22;1722;51.316;12.370;2022-12-07T11:43:20;4.40;98.20
3418;DHT22;1722;51.316;12.370;2022-12-07T11:45:55;4.40;97.50
3418;DHT22;1722;51.316;12.370;2022-12-07T11:48:30;4.40;97.90
3418;DHT22;1722;51.316;12.370;2022-12-07T11:51:01;4.40;98.20
3418;DHT22;1722;51.316;12.370;2022-12-07T11:53:33;4.40;97.90
3418;DHT22;1722;51.316;12.370;2022-12-07T11:56:07;4.40;97.70
3418;DHT22;1722;51.316;12.370;2022-12-07T11:58:44;4.40;97.70
3418;DHT22;1722;51.316;12.370;2022-12-07T12:01:24;4.40;97.40
3418;DHT22;1722;51.316;12.370;2022-12-07T12:03:58;4.40;97.50
3418;DHT22;1722;51.316;12.370;2022-12-07T12:06:28;4.40;97.50
3418;DHT22;1722;51.316;12.370;2022-12-07T12:09:01;4.50;97.10
3418;DHT22;1722;51.316;12.370;2022-12-07T12:11:45;4.60;97.10
3418;DHT22;1722;51.316;12.370;2022-12-07T12:14:30;4.60;97.00
3418;DHT22;1722;51.316;12.370;2022-12-07T12:17:28;4.70;97.10
3418;DHT22;1722;51.316;12.370;2022-12-07T12:20:05;4.80;96.70
3418;DHT22;1722;51.316;12.370;2022-12-07T12:22:36;4.80;96.60
3418;DHT22;1722;51.316;12.370;2022-12-07T12:25:06;4.70;96.30
3418;DHT22;1722;51.316;12.370;2022-12-07T12:27:37;4.70;96.50
3418;DHT22;1722;51.316;12.370;2022-12-07T12:30:27;4.70;96.20
3418;DHT22;1722;51.316;12.370;2022-12-07T12:33:03;4.70;96.40
3418;DHT22;1722;51.316;12.370;2022-12-07T12:35:33;4.70;96.30
3418;DHT22;1722;51.316;12.370;2022-12-07T12:38:21;4.80;96.20
3418;DHT22;1722;51.316;12.370;2022-12-07T12:40:51;4.90;96.10
3418;DHT22;1722;51.316;12.370;2022-12-07T12:43:49;4.90;95.90
3418;DHT22;1722;51.316;12.370;2022-12-07T12:46:50;4.90;95.70
3418;DHT22;1722;51.316;12.370;2022-12-07T12:49:42;5.00;95.50
3418;DHT22;1722;51.316;12.370;2022-12-07T12:58:47;4.90;94.90
3418;DHT22;1722;51.316;12.370;2022-12-07T13:01:39;4.90;95.20
3418;DHT22;1722;51.316;12.370;2022-12-07T13:04:39;4.90;94.90
3418;DHT22;1722;51.316;12.370;2022-12-07T13:07:12;4.90;95.10
3418;DHT22;1722;51.316;12.370;2022-12-07T13:09:43;4.90;95.30
3418;DHT22;1722;51.316;12.370;2022-12-07T13:12:14;4.90;95.20
3418;DHT22;1722;51.316;12.370;2022-12-07T13:14:55;4.90;95.30
3418;DHT22;1722;51.316;12.370;2022-12-07T13:17:54;5.00;95.10
3418;DHT22;1722;51.316;12.370;2022-12-07T13:20:51;5.00;94.60
3418;DHT22;1722;51.316;12.370;2022-12-07T13:23:26;5.00;95.00
3418;DHT22;1722;51.316;12.370;2022-12-07T13:26:03;5.00;94.90
3418;DHT22;1722;51.316;12.370;2022-12-07T13:28:36;4.90;94.60
3418;DHT22;1722;51.316;12.370;2022-12-07T13:31:14;5.00;94.80
3418;DHT22;1722;51.316;12.370;2022-12-07T13:33:44;5.10;94.50
3418;DHT22;1722;51.316;12.370;2022-12-07T13:36:21;5.20;94.60
3418;DHT22;1722;51.316;12.370;2022-12-07T13:38:55;5.10;94.10
3418;DHT22;1722;51.316;12.370;2022-12-07T13:41:24;5.10;94.40
3418;DHT22;1722;51.316;12.370;2022-12-07T13:43:59;5.10;94.40
3418;DHT22;1722;51.316;12.370;2022-12-07T13:46:40;5.10;94.50
3418;DHT22;1722;51.316;12.370;2022-12-07T13:49:18;5.20;94.60
3418;DHT22;1722;51.316;12.370;2022-12-07T13:51:49;5.20;94.40
3418;DHT22;1722;51.316;12.370;2022-12-07T13:54:17;5.20;94.50
3418;DHT22;1722;51.316;12.370;2022-12-07T13:56:48;5.20;93.70
3418;DHT22;1722;51.316;12.370;2022-12-07T13:59:18;5.10;93.70
3418;DHT22;1722;51.316;12.370;2022-12-07T14:01:48;5.10;94.00
3418;DHT22;1722;51.316;12.370;2022-12-07T14:04:27;5.10;93.90
3418;DHT22;1722;51.316;12.370;2022-12-07T14:06:58;4.90;93.30
3418;DHT22;1722;51.316;12.370;2022-12-07T14:09:28;4.90;93.80
3418;DHT22;1722;51.316;12.370;2022-12-07T14:11:56;4.90;93.80
3418;DHT22;1722;51.316;12.370;2022-12-07T14:14:28;4.80;93.70
3418;DHT22;1722;51.316;12.370;2022-12-07T14:16:58;4.80;93.50
3418;DHT22;1722;51.316;12.370;2022-12-07T14:19:42;4.80;93.80
3418;DHT22;1722;51.316;12.370;2022-12-07T14:25:20;4.90;93.50
3418;DHT22;1722;51.316;12.370;2022-12-07T14:27:50;4.90;93.80
3418;DHT22;1722;51.316;12.370;2022-12-07T14:30:19;5.00;94.00
3418;DHT22;1722;51.316;12.370;2022-12-07T14:32:48;4.90;93.80
3418;DHT22;1722;51.316;12.370;2022-12-07T14:35:18;5.00;93.70
3418;DHT22;1722;51.316;12.370;2022-12-07T14:37:48;4.80;93.60
3418;DHT22;1722;51.316;12.370;2022-12-07T14:40:18;4.80;93.50
3418;DHT22;1722;51.316;12.370;2022-12-07T14:42:47;4.80;93.40
3418;DHT22;1722;51.316;12.370;2022-12-07T14:45:17;4.80;93.50
3418;DHT22;1722;51.316;12.370;2022-12-07T14:47:45;4.70;93.60
3418;DHT22;1722;51.316;12.370;2022-12-07T14:50:14;4.60;93.60
3418;DHT22;1722;51.316;12.370;2022-12-07T14:52:43;4.70;93.60
3418;DHT22;1722;51.316;12.370;2022-12-07T14:55:20;4.60;93.50
3418;DHT22;1722;51.316;12.370;2022-12-07T14:57:50;4.60;93.40
3418;DHT22;1722;51.316;12.370;2022-12-07T15:00:20;4.60;93.30
3418;DHT22;1722;51.316;12.370;2022-12-07T15:02:48;4.60;93.20
3418;DHT22;1722;51.316;12.370;2022-12-07T15:05:17;4.50;93.20
3418;DHT22;1722;51.316;12.370;2022-12-07T15:07:45;4.60;93.50
3418;DHT22;1722;51.316;12.370;2022-12-07T15:10:17;4.50;93.10
3418;DHT22;1722;51.316;12.370;2022-12-07T15:12:45;4.50;93.10
3418;DHT22;1722;51.316;12.370;2022-12-07T15:15:12;4.50;93.20
3418;DHT22;1722;51.316;12.370;2022-12-07T15:17:40;4.40;93.20
3418;DHT22;1722;51.316;12.370;2022-12-07T15:20:12;4.40;93.30
3418;DHT22;1722;51.316;12.370;2022-12-07T15:22:39;4.50;93.30
3418;DHT22;1722;51.316;12.370;2022-12-07T15:25:08;4.50;93.10
3418;DHT22;1722;51.316;12.370;2022-12-07T15:27:41;4.50;93.20
3418;DHT22;1722;51.316;12.370;2022-12-07T15:30:09;4.50;93.10
3418;DHT22;1722;51.316;12.370;2022-12-07T15:32:36;4.60;93.10
3418;DHT22;1722;51.316;12.370;2022-12-07T15:35:04;4.50;93.20
3418;DHT22;1722;51.316;12.370;2022-12-07T15:37:32;4.40;93.20
3418;DHT22;1722;51.316;12.370;2022-12-07T15:39:59;4.40;93.20
3418;DHT22;1722;51.316;12.370;2022-12-07T15:42:27;4.40;93.20
3418;DHT22;1722;51.316;12.370;2022-12-07T15:44:56;4.40;93.10
3418;DHT22;1722;51.316;12.370;2022-12-07T15:47:32;4.50;93.00
3418;DHT22;1722;51.316;12.370;2022-12-07T15:50:01;4.60;92.90
3418;DHT22;1722;51.316;12.370;2022-12-07T15:52:28;4.60;92.90
3418;DHT22;1722;51.316;12.370;2022-12-07T15:54:56;4.60;92.90
3418;DHT22;1722;51.316;12.370;2022-12-07T15:57:23;4.60;92.90
3418;DHT22;1722;51.316;12.370;2022-12-07T15:59:51;4.60;92.90
3418;DHT22;1722;51.316;12.370;2022-12-07T16:02:19;4.70;92.80
3418;DHT22;1722;51.316;12.370;2022-12-07T16:04:48;4.70;92.90
3418;DHT22;1722;51.316;12.370;2022-12-07T16:07:16;4.70;92.90
3418;DHT22;1722;51.316;12.370;2022-12-07T16:09:45;4.70;93.00
3418;DHT22;1722;51.316;12.370;2022-12-07T16:12:13;4.70;92.80
3418;DHT22;1722;51.316;12.370;2022-12-07T16:14:41;4.70;92.90
3418;DHT22;1722;51.316;12.370;2022-12-07T16:17:10;4.70;93.20
3418;DHT22;1722;51.316;12.370;2022-12-07T16:19:39;4.80;93.40
3418;DHT22;1722;51.316;12.370;2022-12-07T16:22:06;4.70;94.60
3418;DHT22;1722;51.316;12.370;2022-12-07T16:24:34;4.10;96.70
3418;DHT22;1722;51.316;12.370;2022-12-07T16:27:01;4.20;97.60
3418;DHT22;1722;51.316;12.370;2022-12-07T16:29:29;4.20;97.90
3418;DHT22;1722;51.316;12.370;2022-12-07T16:31:56;4.20;97.70
3418;DHT22;1722;51.316;12.370;2022-12-07T16:34:24;4.30;97.30
3418;DHT22;1722;51.316;12.370;2022-12-07T16:36:53;4.30;97.70
3418;DHT22;1722;51.316;12.370;2022-12-07T16:39:20;4.10;97.50
3418;DHT22;1722;51.316;12.370;2022-12-07T16:41:48;4.10;97.80
3418;DHT22;1722;51.316;12.370;2022-12-07T16:44:15;4.10;97.50
3418;DHT22;1722;51.316;12.370;2022-12-07T16:46:43;4.20;97.60
3418;DHT22;1722;51.316;12.370;2022-12-07T16:49:12;4.10;98.00
3418;DHT22;1722;51.316;12.370;2022-12-07T16:51:40;4.20;97.80
3418;DHT22;1722;51.316;12.370;2022-12-07T16:54:11;4.30;97.60
3418;DHT22;1722;51.316;12.370;2022-12-07T16:56:39;4.50;97.70
3418;DHT22;1722;51.316;12.370;2022-12-07T16:59:07;4.50;97.30
3418;DHT22;1722;51.316;12.370;2022-12-07T17:01:35;4.60;97.30
3418;DHT22;1722;51.316;12.370;2022-12-07T17:04:03;4.60;97.10
3418;DHT22;1722;51.316;12.370;2022-12-07T17:06:30;4.60;96.70
3418;DHT22;1722;51.316;12.370;2022-12-07T17:08:58;4.50;96.50
3418;DHT22;1722;51.316;12.370;2022-12-07T17:11:29;4.40;96.30
3418;DHT22;1722;51.316;12.370;2022-12-07T17:13:58;4.40;96.90
3418;DHT22;1722;51.316;12.370;2022-12-07T17:16:42;4.40;97.00
3418;DHT22;1722;51.316;12.370;2022-12-07T17:19:12;4.50;97.10
3418;DHT22;1722;51.316;12.370;2022-12-07T17:21:41;4.60;97.00
3418;DHT22;1722;51.316;12.370;2022-12-07T17:24:11;4.70;97.00
3418;DHT22;1722;51.316;12.370;2022-12-07T17:26:41;4.70;96.90
3418;DHT22;1722;51.316;12.370;2022-12-07T17:29:13;4.70;96.10
3418;DHT22;1722;51.316;12.370;2022-12-07T17:31:41;4.70;96.10
3418;DHT22;1722;51.316;12.370;2022-12-07T17:34:10;4.60;95.60
3418;DHT22;1722;51.316;12.370;2022-12-07T17:36:38;4.40;96.10
3418;DHT22;1722;51.316;12.370;2022-12-07T17:39:07;4.30;96.60
3418;DHT22;1722;51.316;12.370;2022-12-07T17:41:36;4.30;96.30
3418;DHT22;1722;51.316;12.370;2022-12-07T17:44:31;4.20;96.80
3418;DHT22;1722;51.316;12.370;2022-12-07T17:46:59;4.30;96.70
3418;DHT22;1722;51.316;12.370;2022-12-07T17:49:27;4.20;96.80
3418;DHT22;1722;51.316;12.370;2022-12-07T17:51:55;4.30;96.70
3418;DHT22;1722;51.316;12.370;2022-12-07T17:54:40;4.30;96.70
3418;DHT22;1722;51.316;12.370;2022-12-07T17:57:08;4.30;96.30
3418;DHT22;1722;51.316;12.370;2022-12-07T17:59:37;4.20;96.40
3418;DHT22;1722;51.316;12.370;2022-12-07T18:02:04;4.10;96.70
3418;DHT22;1722;51.316;12.370;2022-12-07T18:04:32;4.10;96.90
3418;DHT22;1722;51.316;12.370;2022-12-07T18:06:59;4.10;96.80
3418;DHT22;1722;51.316;12.370;2022-12-07T18:09:27;4.20;97.10
3418;DHT22;1722;51.316;12.370;2022-12-07T18:11:55;4.10;96.80
3418;DHT22;1722;51.316;12.370;2022-12-07T18:14:22;4.20;97.10
3418;DHT22;1722;51.316;12.370;2022-12-07T18:16:51;4.10;96.80
3418;DHT22;1722;51.316;12.370;2022-12-07T18:19:18;4.10;96.90
3418;DHT22;1722;51.316;12.370;2022-12-07T18:21:46;4.10;97.10
3418;DHT22;1722;51.316;12.370;2022-12-07T18:24:15;4.10;97.30
3418;DHT22;1722;51.316;12.370;2022-12-07T18:26:44;4.10;97.10
3418;DHT22;1722;51.316;12.370;2022-12-07T18:29:15;4.20;97.10
3418;DHT22;1722;51.316;12.370;2022-12-07T18:31:44;4.20;96.60